Time;durP1;ratioP1;P1;durP2;ratioP2;P2;SDS_P1;SDS_P2;PMS_P1;PMS_P2;Temp;Humidity;BMP_temperature;BMP_pressure;BME280_temperature;BME280_humidity;BME280_pressure;Samples;Min_cycle;Max_cycle;Signal;HPM_P1;HPM_P2
2023/05/03 00:00:07;;;;;;;5.47;1.60;;;10.60;92.30;;;;;;6232450;22;20093;-90
2023/05/03 00:03:09;;;;;;;;;;;;;;;;;;;;;
2023/05/03 00:05:50;;;;;;;4.68;1.30;;;10.60;92.70;;;;;;6278004;22;20011;-90
2023/05/03 00:08:36;;;;;;;;;;;;;;;;;;;;;
2023/05/03 00:11:20;;;;;;;7.32;1.27;;;10.50;92.90;;;;;;6252340;22;20003;-91
2023/05/03 00:13:56;;;;;;;3.55;1.40;;;10.50;93.10;;;;;;6247446;22;20030;-90
2023/05/03 00:16:52;;;;;;;4.80;1.35;;;10.40;93.00;;;;;;6243799;22;20026;-88
2023/05/03 00:19:36;;;;;;;5.03;1.45;;;10.40;93.20;;;;;;6236839;22;20039;-88
2023/05/03 00:22:14;;;;;;;;;;;;;;;;;;;;;
2023/05/03 00:24:50;;;;;;;5.78;1.58;;;10.40;92.90;;;;;;6260349;22;20386;-89
2023/05/03 00:27:42;;;;;;;7.35;1.60;;;10.30;93.10;;;;;;6232995;22;20031;-89
2023/05/03 00:30:30;;;;;;;8.88;1.60;;;10.30;93.30;;;;;;6236790;22;20077;-89
2023/05/03 00:33:08;;;;;;;;;;;;;;;;;;;;;
2023/05/03 00:35:54;;;;;;;;;;;;;;;;;;;;;
2023/05/03 00:38:30;;;;;;;;;;;;;;;;;;;;;
2023/05/03 00:41:30;;;;;;;;;;;;;;;;;;;;;
2023/05/03 00:44:48;;;;;;;4.55;1.20;;;10.20;93.50;;;;;;6255310;22;20384;-89
2023/05/03 00:47:37;;;;;;;6.53;1.45;;;10.10;93.50;;;;;;6282170;22;19999;-89
2023/05/03 00:53:23;;;;;;;3.83;1.15;;;10.10;93.50;;;;;;6246047;22;20404;-89
2023/05/03 00:56:12;;;;;;;5.57;1.55;;;10.00;93.80;;;;;;6257082;22;20015;-89
2023/05/03 00:58:56;;;;;;;;;;;;;;;;;;;;;
2023/05/03 01:01:29;;;;;;;3.40;0.98;;;10.00;93.80;;;;;;6271073;22;20000;-89
2023/05/03 01:04:15;;;;;;;3.50;1.42;;;9.90;93.80;;;;;;6252907;22;20022;-88
2023/05/03 01:07:03;;;;;;;5.15;1.40;;;9.90;94.20;;;;;;6252863;22;20436;-90
2023/05/03 01:10:08;;;;;;;4.22;1.25;;;9.90;94.30;;;;;;6252133;22;20429;-88
2023/05/03 01:13:22;;;;;;;2.92;1.20;;;9.80;94.70;;;;;;6236341;22;20060;-89
2023/05/03 01:19:01;;;;;;;3.40;1.20;;;9.80;94.90;;;;;;6257020;22;20457;-88
2023/05/03 01:21:34;;;;;;;3.55;1.10;;;9.70;95.10;;;;;;6252780;22;20003;-89
2023/05/03 01:24:31;;;;;;;5.70;1.60;;;9.70;95.50;;;;;;6252500;22;20078;-89
2023/05/03 01:27:25;;;;;;;6.22;1.40;;;9.70;95.30;;;;;;6256935;22;20008;-89
2023/05/03 01:30:18;;;;;;;;;;;;;;;;;;;;;
2023/05/03 01:33:15;;;;;;;;;;;;;;;;;;;;;
2023/05/03 01:36:00;;;;;;;4.40;1.33;;;9.60;96.10;;;;;;6279271;22;20118;-89
2023/05/03 01:38:48;;;;;;;7.10;1.50;;;9.60;96.30;;;;;;6227060;22;20018;-89
2023/05/03 01:44:10;;;;;;;6.85;1.40;;;9.50;96.60;;;;;;6256822;22;20379;-88
2023/05/03 01:47:20;;;;;;;5.85;1.30;;;9.50;97.00;;;;;;6253287;22;19999;-89
2023/05/03 01:49:52;;;;;;;6.82;1.35;;;9.50;96.90;;;;;;6252022;22;20003;-89
2023/05/03 01:52:49;;;;;;;5.45;1.67;;;9.40;96.80;;;;;;6251905;22;20011;-88
2023/05/03 01:56:03;;;;;;;;;;;;;;;;;;;;;
2023/05/03 01:59:02;;;;;;;9.52;2.08;;;9.40;96.90;;;;;;6279092;22;20078;-89
2023/05/03 02:01:32;;;;;;;9.77;1.63;;;9.30;97.40;;;;;;6251796;22;20003;-89
2023/05/03 02:04:28;;;;;;;5.80;2.15;;;9.30;97.40;;;;;;6252225;22;20008;-89
2023/05/03 02:06:59;;;;;;;4.60;1.65;;;9.30;97.40;;;;;;6231974;22;20004;-89
2023/05/03 02:09:32;;;;;;;4.00;1.55;;;9.20;97.60;;;;;;6226789;22;20043;-89
2023/05/03 02:12:16;;;;;;;5.05;1.65;;;9.20;97.70;;;;;;6227166;22;20330;-89
2023/05/03 02:14:50;;;;;;;5.80;1.55;;;9.20;98.10;;;;;;6251262;22;20086;-89
2023/05/03 02:17:43;;;;;;;;;;;;;;;;;;;;;
2023/05/03 02:23:18;;;;;;;3.78;1.50;;;9.10;98.90;;;;;;6260016;22;20004;-90
2023/05/03 02:25:51;;;;;;;5.60;1.55;;;9.10;99.40;;;;;;6251585;22;20000;-90
2023/05/03 02:29:14;;;;;;;;;;;;;;;;;;;;;
2023/05/03 02:32:24;;;;;;;;;;;;;;;;;;;;;
2023/05/03 02:35:02;;;;;;;5.95;1.80;;;9.00;99.90;;;;;;6270616;22;20361;-89
2023/05/03 02:37:36;;;;;;;7.90;2.17;;;9.00;99.90;;;;;;6251771;22;20000;-90
2023/05/03 02:40:32;;;;;;;7.53;1.77;;;9.00;99.90;;;;;;6228052;22;20003;-89
2023/05/03 02:43:09;;;;;;;5.57;1.50;;;9.00;99.90;;;;;;6242464;22;20489;-90
2023/05/03 02:45:58;;;;;;;4.57;1.48;;;8.90;99.90;;;;;;6252567;22;19996;-89
2023/05/03 02:48:39;;;;;;;;;;;;;;;;;;;;;
2023/05/03 02:51:20;;;;;;;;;;;;;;;;;;;;;
2023/05/03 02:53:56;;;;;;;5.47;1.92;;;8.90;99.90;;;;;;6256740;22;20090;-89
2023/05/03 02:56:40;;;;;;;;;;;;;;;;;;;;;
2023/05/03 02:59:21;;;;;;;;;;;;;;;;;;;;;
2023/05/03 03:02:07;;;;;;;;;;;8.80;99.90;;;;;;6256813;22;20075;-90
2023/05/03 03:04:39;;;;;;;6.65;1.70;;;8.70;99.90;;;;;;6238896;22;20229;-90
2023/05/03 03:07:23;;;;;;;;;;;;;;;;;;;;;
2023/05/03 03:10:55;;;;;;;5.40;1.85;;;8.70;99.90;;;;;;6270802;22;20011;-89
2023/05/03 03:16:33;;;;;;;;;;;;;;;;;;;;;
2023/05/03 03:19:28;;;;;;;8.18;2.25;;;8.60;99.90;;;;;;6280168;22;20083;-90
2023/05/03 03:21:59;;;;;;;5.10;1.70;;;8.60;99.90;;;;;;6207488;22;20015;-89
2023/05/03 03:24:37;;;;;;;7.93;2.90;;;8.50;99.90;;;;;;6253689;22;20015;-89
2023/05/03 03:27:36;;;;;;;6.20;1.70;;;8.50;99.90;;;;;;6229026;22;20061;-89
2023/05/03 03:30:33;;;;;;;4.63;1.75;;;8.50;99.90;;;;;;6244296;22;20019;-89
2023/05/03 03:33:59;;;;;;;7.20;1.98;;;8.40;99.90;;;;;;6282818;22;20008;-90
2023/05/03 03:36:38;;;;;;;10.88;1.92;;;8.40;99.90;;;;;;6297695;22;20067;-92
2023/05/03 03:42:27;;;;;;;5.80;2.15;;;8.40;99.90;;;;;;6287706;22;20008;-88
2023/05/03 03:45:20;;;;;;;5.78;1.98;;;8.30;99.90;;;;;;6269137;22;20063;-89
2023/05/03 03:47:56;;;;;;;5.60;1.80;;;8.30;99.90;;;;;;6208540;22;20011;-89
2023/05/03 03:50:24;;;;;;;6.47;2.20;;;8.30;99.90;;;;;;6232855;22;20074;-88
2023/05/03 03:53:04;;;;;;;;;;;;;;;;;;;;;
2023/05/03 03:55:36;;;;;;;5.97;2.17;;;8.30;99.90;;;;;;6255361;22;20399;-88
2023/05/03 03:58:28;;;;;;;6.07;1.85;;;8.30;99.90;;;;;;6227375;22;20038;-89
2023/05/03 04:01:11;;;;;;;12.40;2.60;;;8.20;99.90;;;;;;6253532;22;20405;-89
2023/05/03 04:03:49;;;;;;;6.07;2.65;;;8.20;99.90;;;;;;6226941;22;20047;-89
2023/05/03 04:06:17;;;;;;;5.22;2.10;;;8.20;99.90;;;;;;6230078;22;20004;-88
2023/05/03 04:08:46;;;;;;;5.65;2.10;;;8.20;99.90;;;;;;6252944;22;20012;-88
2023/05/03 04:11:31;;;;;;;6.20;2.80;;;8.10;99.90;;;;;;6253257;22;20019;-89
2023/05/03 04:14:00;;;;;;;8.32;3.15;;;8.10;99.90;;;;;;6228995;22;20003;-88
2023/05/03 04:16:28;;;;;;;3.38;2.00;;;8.10;99.90;;;;;;6253060;22;20030;-89
2023/05/03 04:19:06;;;;;;;6.70;1.98;;;8.00;99.90;;;;;;6253118;22;20038;-89
2023/05/03 04:21:57;;;;;;;7.13;1.90;;;8.00;99.90;;;;;;6252584;22;20406;-87
2023/05/03 04:24:44;;;;;;;4.35;2.15;;;8.00;99.90;;;;;;6227399;22;20003;-88
2023/05/03 04:27:13;;;;;;;5.85;2.10;;;7.90;99.90;;;;;;6280049;22;20433;-88
2023/05/03 04:30:24;;;;;;;6.28;1.95;;;7.90;99.90;;;;;;6227923;22;20016;-89
2023/05/03 04:33:13;;;;;;;2.92;1.60;;;7.90;99.90;;;;;;6252456;22;20380;-90
2023/05/03 04:35:58;;;;;;;5.75;1.85;;;7.80;99.90;;;;;;6252385;22;20008;-91
2023/05/03 04:38:27;;;;;;;11.43;2.20;;;7.80;99.90;;;;;;6227229;22;20015;-89
2023/05/03 04:41:13;;;;;;;8.20;2.53;;;7.80;99.90;;;;;;6249376;22;20007;-91
2023/05/03 04:44:02;;;;;;;6.30;2.45;;;7.80;99.90;;;;;;6253065;22;20448;-90
2023/05/03 04:46:45;;;;;;;6.95;1.92;;;7.80;99.90;;;;;;6228484;22;20452;-89
2023/05/03 04:49:34;;;;;;;;;;;;;;;;;;;;;
2023/05/03 04:52:10;;;;;;;4.22;1.73;;;7.70;99.90;;;;;;6253389;22;20083;-89
2023/05/03 04:54:45;;;;;;;3.47;1.52;;;7.70;99.90;;;;;;6228291;22;20107;-90
2023/05/03 04:57:29;;;;;;;;;;;;;;;;;;;;;
2023/05/03 05:00:10;;;;;;;6.85;1.80;;;7.80;99.90;;;;;;6278221;22;20080;-90
2023/05/03 05:03:04;;;;;;;;;;;;;;;;;;;;;
2023/05/03 05:05:42;;;;;;;4.68;1.90;;;7.80;99.90;;;;;;6278811;22;20516;-89
2023/05/03 05:08:23;;;;;;;;;;;;;;;;;;;;;
2023/05/03 05:11:01;;;;;;;;;;;;;;;;;;;;;
2023/05/03 05:13:40;;;;;;;;;;;;;;;;;;;;;
2023/05/03 05:16:12;;;;;;;5.88;1.90;;;7.80;99.90;;;;;;6283378;22;20019;-89
2023/05/03 05:19:08;;;;;;;;;;;;;;;;;;;;;
2023/05/03 05:24:34;;;;;;;6.47;1.92;;;7.90;99.90;;;;;;6255966;22;20006;-90
2023/05/03 05:27:10;;;;;;;5.07;2.22;;;7.90;99.90;;;;;;6250811;22;20090;-89
2023/05/03 05:29:55;;;;;;;5.82;2.17;;;8.00;99.90;;;;;;6204274;22;20342;-90
2023/05/03 05:32:28;;;;;;;8.32;2.10;;;8.00;99.90;;;;;;6227895;22;20010;-90
2023/05/03 05:38:16;;;;;;;4.78;2.42;;;8.10;99.90;;;;;;6233964;22;20083;-91
2023/05/03 05:40:57;;;;;;;6.40;2.30;;;8.10;99.90;;;;;;6229182;22;20103;-91
2023/05/03 05:43:56;;;;;;;;;;;;;;;;;;;;;
2023/05/03 05:49:18;;;;;;;;;;;8.30;99.90;;;;;;6210167;22;20039;-89
2023/05/03 05:51:54;;;;;;;6.43;2.47;;;8.30;99.90;;;;;;6253184;22;19943;-88
2023/05/03 05:54:45;;;;;;;7.63;2.10;;;8.30;99.90;;;;;;6251825;22;20441;-90
2023/05/03 05:57:34;;;;;;;;;;;;;;;;;;;;;
2023/05/03 06:00:20;;;;;;;6.35;2.30;;;8.40;99.90;;;;;;6278598;22;20080;-88
2023/05/03 06:02:56;;;;;;;5.07;2.15;;;8.40;99.90;;;;;;6251270;22;20090;-88
2023/05/03 06:05:24;;;;;;;4.43;2.00;;;8.50;99.90;;;;;;6227532;22;20003;-90
2023/05/03 06:08:08;;;;;;;;;;;;;;;;;;;;;
2023/05/03 06:10:44;;;;;;;4.70;2.53;;;8.50;99.90;;;;;;6278256;22;20100;-88
2023/05/03 06:17:23;;;;;;;;;;;;;;;;;;;;;
2023/05/03 06:20:26;;;;;;;;;;;;;;;;;;;;;
2023/05/03 06:23:42;;;;;;;;;;;;;;;;;;;;;
2023/05/03 06:26:31;;;;;;;4.15;1.50;;;8.70;99.90;;;;;;6266075;22;20481;-89
2023/05/03 06:29:48;;;;;;;3.92;1.50;;;8.70;99.90;;;;;;6232327;22;20007;-90
2023/05/03 06:32:55;;;;;;;4.72;1.60;;;8.80;99.90;;;;;;6252383;22;20006;-88
2023/05/03 06:49:26;;;;;;;;;;;;;;;;;;;;;
2023/05/03 06:53:01;;;;;;;;;;;;;;;;;;;;;
2023/05/03 06:55:59;;;;;;;;;;;;;;;;;;;;;
2023/05/03 06:59:10;;;;;;;;;;;;;;;;;;;;;
2023/05/03 07:25:46;;;;;;;;;;;9.80;99.90;;;;;;6028363;23;20032;-90
2023/05/03 07:35:51;;;;;;;;;;;;;;;;;;;;;
2023/05/03 07:39:00;;;;;;;;;;;;;;;;;;;;;
2023/05/03 07:45:09;;;;;;;3.83;2.00;;;10.40;99.90;;;;;;6058653;23;20013;-91
2023/05/03 07:48:16;;;;;;;;;;;;;;;;;;;;;
2023/05/03 07:51:21;;;;;;;;;;;;;;;;;;;;;
2023/05/03 07:54:46;;;;;;;;;;;;;;;;;;;;;
2023/05/03 08:06:45;;;;;;;;;;;;;;;;;;;;;
2023/05/03 08:10:10;;;;;;;4.38;1.50;;;11.30;99.90;;;;;;6279985;22;20063;-91
2023/05/03 08:15:57;;;;;;;4.47;1.80;;;11.50;99.90;;;;;;6235633;22;20008;-90
2023/05/03 08:19:32;;;;;;;3.92;1.42;;;11.60;99.90;;;;;;6203108;22;20372;-89
2023/05/03 08:22:16;;;;;;;4.45;1.58;;;11.70;99.90;;;;;;6271602;22;20090;-90
2023/05/03 08:24:59;;;;;;;;;;;11.80;99.90;;;;;;6257395;22;20033;-89
2023/05/03 08:28:07;;;;;;;4.30;1.67;;;11.90;98.10;;;;;;6252067;22;19899;-90
2023/05/03 08:31:06;;;;;;;9.18;1.85;;;11.90;98.40;;;;;;6256444;22;20016;-90
2023/05/03 08:34:19;;;;;;;;;;;;;;;;;;;;;
2023/05/03 08:47:14;;;;;;;;;;;;;;;;;;;;;
2023/05/03 08:50:34;;;;;;;2.60;1.27;;;12.50;96.70;;;;;;6209652;22;20094;-92
2023/05/03 08:54:05;;;;;;;;;;;;;;;;;;;;;
2023/05/03 09:03:51;;;;;;;;;;;;;;;;;;;;;
2023/05/03 09:09:45;;;;;;;3.90;1.45;;;13.00;94.90;;;;;;6279076;22;20496;-91
2023/05/03 09:12:40;;;;;;;5.20;1.98;;;13.10;95.00;;;;;;6252237;22;20000;-90
2023/05/03 09:15:35;;;;;;;;;;;;;;;;;;;;;
2023/05/03 09:18:42;;;;;;;3.92;1.58;;;13.30;94.90;;;;;;6255082;22;20079;-90
2023/05/03 09:21:50;;;;;;;;;;;;;;;;;;;;;
2023/05/03 09:27:32;;;;;;;;;;;;;;;;;;;;;
2023/05/03 09:30:30;;;;;;;5.20;1.52;;;13.50;93.90;;;;;;6279638;22;20086;-90
2023/05/03 09:33:11;;;;;;;5.82;2.20;;;13.60;93.80;;;;;;6229103;22;20071;-88
2023/05/03 09:36:33;;;;;;;3.47;1.75;;;13.70;93.70;;;;;;6259308;22;20030;-89
2023/05/03 09:39:35;;;;;;;5.68;1.98;;;13.80;93.40;;;;;;6256282;22;20012;-92
2023/05/03 09:42:34;;;;;;;5.75;1.88;;;13.90;93.00;;;;;;6272257;22;20124;-90
2023/05/03 09:45:37;;;;;;;4.82;1.83;;;14.00;93.20;;;;;;6251518;22;19999;-90
2023/05/03 09:48:06;;;;;;;3.13;1.73;;;14.00;93.20;;;;;;6228246;22;20008;-89
2023/05/03 09:51:08;;;;;;;;;;;;;;;;;;;;;
2023/05/03 09:54:08;;;;;;;9.05;2.88;;;14.20;92.70;;;;;;6277785;22;20095;-90
2023/05/03 09:56:52;;;;;;;6.17;2.33;;;14.30;93.10;;;;;;6251312;22;20045;-90
2023/05/03 09:59:54;;;;;;;;;;;;;;;;;;;;;
2023/05/03 10:02:53;;;;;;;;;;;;;;;;;;;;;
2023/05/03 10:06:11;;;;;;;4.32;2.03;;;14.60;93.00;;;;;;6278664;22;20091;-89
2023/05/03 10:09:07;;;;;;;4.72;1.80;;;14.70;92.90;;;;;;6237537;22;20026;-89
2023/05/03 10:12:17;;;;;;;;;;;;;;;;;;;;;
2023/05/03 10:14:57;;;;;;;4.82;1.80;;;14.80;91.60;;;;;;6277783;22;20095;-89
2023/05/03 10:17:44;;;;;;;10.05;2.00;;;14.90;91.70;;;;;;6227964;22;20008;-90
2023/05/03 10:20:17;;;;;;;3.90;1.75;;;15.00;91.80;;;;;;6251605;22;20037;-89
2023/05/03 10:23:21;;;;;;;6.13;2.13;;;15.00;91.20;;;;;;6277978;22;20003;-88
2023/05/03 10:26:24;;;;;;;;;;;;;;;;;;;;;
2023/05/03 10:29:54;;;;;;;;;;;;;;;;;;;;;
2023/05/03 10:32:40;;;;;;;6.55;2.35;;;15.30;90.10;;;;;;6277843;22;20083;-89
2023/05/03 10:35:15;;;;;;;5.25;1.90;;;15.30;88.60;;;;;;6204939;22;20011;-90
2023/05/03 10:37:57;;;;;;;;;;;;;;;;;;;;;
2023/05/03 10:48:09;;;;;;;5.93;1.90;;;15.50;89.20;;;;;;6278549;22;20011;-92
2023/05/03 10:53:57;;;;;;;5.90;1.67;;;15.70;89.10;;;;;;6272233;22;20016;-88
2023/05/03 10:56:25;;;;;;;2.58;1.70;;;15.80;89.50;;;;;;6223719;22;20078;-88
2023/05/03 10:58:57;;;;;;;4.63;1.85;;;15.90;89.60;;;;;;6249433;22;20087;-87
2023/05/03 11:01:27;;;;;;;3.00;1.65;;;16.00;89.40;;;;;;6249391;22;20433;-87
2023/05/03 11:04:06;;;;;;;4.38;1.85;;;16.00;88.20;;;;;;6249792;22;19999;-88
2023/05/03 11:06:37;;;;;;;3.78;1.67;;;16.10;87.70;;;;;;6249980;22;20000;-87
2023/05/03 11:09:06;;;;;;;4.85;1.80;;;16.20;86.80;;;;;;6252460;22;20079;-88
2023/05/03 11:11:34;;;;;;;3.45;1.50;;;16.30;86.50;;;;;;6252436;22;20004;-88
2023/05/03 11:14:06;;;;;;;2.97;1.60;;;16.30;86.30;;;;;;6252935;22;20475;-88
2023/05/03 11:16:39;;;;;;;4.65;1.70;;;16.40;85.20;;;;;;6251587;22;20011;-88
2023/05/03 11:19:05;;;;;;;3.97;1.38;;;16.40;85.00;;;;;;6251468;22;20015;-87
2023/05/03 11:21:32;;;;;;;2.63;1.60;;;16.50;84.80;;;;;;6251567;22;20003;-87
2023/05/03 11:24:00;;;;;;;7.07;2.00;;;16.60;83.90;;;;;;6278511;22;20030;-88
2023/05/03 11:26:29;;;;;;;3.03;1.42;;;16.60;83.00;;;;;;6250914;22;20007;-87
2023/05/03 11:28:57;;;;;;;3.13;1.40;;;16.70;83.20;;;;;;6251116;22;20007;-87
2023/05/03 11:31:25;;;;;;;3.13;1.35;;;16.70;83.10;;;;;;6251083;22;20004;-87
2023/05/03 11:33:52;;;;;;;5.97;1.42;;;16.80;83.20;;;;;;6251199;22;20000;-87
2023/05/03 11:36:18;;;;;;;2.20;1.20;;;16.90;83.00;;;;;;6251671;22;20003;-88
2023/05/03 11:38:54;;;;;;;4.78;1.50;;;16.90;80.70;;;;;;6201179;22;20010;-88
2023/05/03 11:41:27;;;;;;;3.55;1.30;;;16.90;79.40;;;;;;6231722;22;20008;-87
2023/05/03 11:43:55;;;;;;;3.78;1.48;;;17.00;79.20;;;;;;6226867;22;20091;-87
2023/05/03 11:46:28;;;;;;;4.10;1.75;;;17.00;78.20;;;;;;6250685;22;20372;-87
2023/05/03 11:49:01;;;;;;;2.35;1.27;;;17.00;78.30;;;;;;6250970;22;20003;-87
2023/05/03 11:51:34;;;;;;;3.15;1.40;;;17.10;78.10;;;;;;6251136;22;20326;-87
2023/05/03 11:54:01;;;;;;;3.72;1.60;;;17.10;78.30;;;;;;6245726;23;20016;-87
2023/05/03 11:56:30;;;;;;;3.15;1.58;;;17.20;79.00;;;;;;6245208;23;20000;-87
2023/05/03 11:58:57;;;;;;;4.70;1.48;;;17.20;77.80;;;;;;6221187;23;20015;-87
2023/05/03 12:01:25;;;;;;;3.95;1.67;;;17.20;76.60;;;;;;6245946;23;20007;-88
2023/05/03 12:05:05;;;;;;;4.80;1.65;;;17.30;77.40;;;;;;6246983;23;20391;-93
2023/05/03 12:07:35;;;;;;;;;;;;;;;;;;;;;
2023/05/03 12:10:55;;;;;;;;;;;;;;;;;;;;;
2023/05/03 12:13:40;;;;;;;4.35;1.95;;;17.40;76.90;;;;;;6246660;23;20101;-89
2023/05/03 12:16:28;;;;;;;;;;;;;;;;;;;;;
2023/05/03 12:19:27;;;;;;;;;;;;;;;;;;;;;
2023/05/03 12:22:06;;;;;;;;;;;;;;;;;;;;;
2023/05/03 12:25:06;;;;;;;6.35;2.17;;;17.70;76.80;;;;;;6246919;23;20096;-90
2023/05/03 12:27:52;;;;;;;4.30;2.13;;;17.80;76.20;;;;;;6238725;23;20055;-90
2023/05/03 12:48:36;;;;;;;;;;;;;;;;;;;;;
2023/05/03 12:51:32;;;;;;;;;;;;;;;;;;;;;
2023/05/03 12:54:46;;;;;;;;;;;;;;;;;;;;;
2023/05/03 12:58:10;;;;;;;;;;;;;;;;;;;;;
2023/05/03 13:00:37;;;;;;;4.43;2.13;;;18.60;73.00;;;;;;6240065;22;20008;-89
2023/05/03 13:03:17;;;;;;;6.88;1.63;;;18.70;73.50;;;;;;6246700;23;20083;-90
2023/05/03 13:05:58;;;;;;;;;;;;;;;;;;;;;
2023/05/03 13:14:39;;;;;;;3.58;1.92;;;19.00;72.90;;;;;;6226873;23;20091;-89
2023/05/03 13:27:00;;;;;;;;;;;;;;;;;;;;;
2023/05/03 13:32:51;;;;;;;7.30;2.10;;;19.40;70.70;;;;;;6247791;23;20009;-90
2023/05/03 13:38:40;;;;;;;3.63;2.10;;;19.50;70.20;;;;;;6205187;22;20307;-90
2023/05/03 13:41:32;;;;;;;3.78;1.55;;;19.60;69.90;;;;;;6221250;23;20008;-89
2023/05/03 13:44:42;;;;;;;4.82;2.53;;;19.70;69.30;;;;;;6246546;23;20008;-89
2023/05/03 13:47:36;;;;;;;;;;;;;;;;;;;;;
2023/05/03 13:50:18;;;;;;;4.70;2.42;;;19.80;69.10;;;;;;6255488;23;20020;-90
2023/05/03 13:56:13;;;;;;;3.70;2.17;;;19.90;68.90;;;;;;6246215;23;20095;-90
2023/05/03 13:58:47;;;;;;;4.35;2.30;;;19.90;67.20;;;;;;6226278;23;20442;-90
2023/05/03 14:01:32;;;;;;;;;;;;;;;;;;;;;
2023/05/03 14:08:01;;;;;;;;;;;;;;;;;;;;;
2023/05/03 14:13:50;;;;;;;4.03;2.00;;;20.10;65.10;;;;;;6226764;22;20426;-89
2023/05/03 14:16:46;;;;;;;;;;;;;;;;;;;;;
2023/05/03 14:19:39;;;;;;;;;;;;;;;;;;;;;
2023/05/03 14:22:58;;;;;;;;;;;;;;;;;;;;;
2023/05/03 14:25:33;;;;;;;3.78;1.90;;;20.30;64.50;;;;;;6247087;23;20079;-87
2023/05/03 14:27:58;;;;;;;4.43;2.33;;;20.30;64.20;;;;;;6244856;23;20004;-86
2023/05/03 14:30:24;;;;;;;3.03;1.90;;;20.30;63.90;;;;;;6244861;23;20091;-87
2023/05/03 14:33:08;;;;;;;;;;;;;;;;;;;;;
2023/05/03 14:36:38;;;;;;;4.07;2.30;;;20.30;62.20;;;;;;6245322;23;20079;-89
2023/05/03 14:39:03;;;;;;;2.80;1.80;;;20.30;62.80;;;;;;6239052;22;20008;-84
2023/05/03 14:41:29;;;;;;;4.32;2.30;;;20.30;64.00;;;;;;6243491;23;20000;-84
2023/05/03 14:43:55;;;;;;;6.03;2.47;;;20.30;63.90;;;;;;6243740;23;20027;-84
2023/05/03 14:46:21;;;;;;;4.30;2.05;;;20.30;64.10;;;;;;6245438;22;20314;-84
2023/05/03 14:48:46;;;;;;;5.22;2.08;;;20.30;64.00;;;;;;6242926;23;20004;-84
2023/05/03 14:51:13;;;;;;;4.72;2.42;;;20.30;63.80;;;;;;6245408;23;20008;-85
2023/05/03 14:53:39;;;;;;;4.78;2.00;;;20.30;64.30;;;;;;6221311;22;20500;-86
2023/05/03 14:56:05;;;;;;;3.67;1.95;;;20.30;63.10;;;;;;6276307;22;19999;-86
2023/05/03 14:58:34;;;;;;;5.32;2.00;;;20.30;63.20;;;;;;6249280;22;20003;-85
2023/05/03 15:01:03;;;;;;;6.93;2.53;;;20.30;63.40;;;;;;6224228;22;20487;-86
2023/05/03 15:03:29;;;;;;;6.88;2.40;;;20.30;63.90;;;;;;6249042;22;20000;-86
2023/05/03 15:05:55;;;;;;;4.55;2.10;;;20.30;64.30;;;;;;6276110;22;20382;-86
2023/05/03 15:08:50;;;;;;;3.53;2.20;;;20.30;63.60;;;;;;6249898;22;20023;-89
2023/05/03 15:11:52;;;;;;;5.82;2.80;;;20.30;63.20;;;;;;6234432;22;20342;-90
2023/05/03 15:15:11;;;;;;;;;;;;;;;;;;;;;
2023/05/03 15:18:17;;;;;;;;;;;;;;;;;;;;;
2023/05/03 15:21:12;;;;;;;;;;;;;;;;;;;;;
2023/05/03 15:24:06;;;;;;;5.82;2.85;;;20.40;63.80;;;;;;6236163;22;20131;-89
2023/05/03 15:29:41;;;;;;;;;;;;;;;;;;;;;
2023/05/03 15:32:36;;;;;;;5.38;2.40;;;20.40;63.20;;;;;;6254787;22;20074;-91
2023/05/03 15:35:45;;;;;;;6.72;2.78;;;20.40;62.30;;;;;;6236901;22;20000;-90
2023/05/03 15:38:46;;;;;;;5.15;2.10;;;20.50;62.60;;;;;;6154965;23;20454;-91
2023/05/03 15:41:48;;;;;;;;;;;;;;;;;;;;;
2023/05/03 15:44:50;;;;;;;;;;;;;;;;;;;;;
2023/05/03 15:48:07;;;;;;;4.55;2.03;;;20.40;63.30;;;;;;6257062;22;20082;-89
2023/05/03 15:51:23;;;;;;;;;;;;;;;;;;;;;
2023/05/03 15:54:15;;;;;;;5.30;1.80;;;20.40;62.80;;;;;;6279820;22;20028;-90
2023/05/03 15:57:52;;;;;;;;;;;;;;;;;;;;;
2023/05/03 16:00:23;;;;;;;;;;;;;;;;;;;;;
2023/05/03 16:03:22;;;;;;;6.50;2.10;;;20.50;63.70;;;;;;6258231;22;20095;-87
2023/05/03 16:05:50;;;;;;;4.53;2.10;;;20.60;64.20;;;;;;6244621;22;20004;-87
2023/05/03 16:08:54;;;;;;;4.32;2.20;;;20.60;63.40;;;;;;6253298;22;20079;-89
2023/05/03 16:11:37;;;;;;;5.15;2.60;;;20.60;62.40;;;;;;6228847;22;20008;-88
2023/05/03 16:14:08;;;;;;;6.65;2.53;;;20.60;61.60;;;;;;6207213;22;20003;-88
2023/05/03 16:16:45;;;;;;;6.32;2.00;;;20.60;61.50;;;;;;6204667;22;20090;-88
2023/05/03 16:22:35;;;;;;;6.45;2.30;;;20.60;61.40;;;;;;6261774;22;20015;-89
2023/05/03 16:25:33;;;;;;;5.82;2.30;;;20.60;60.80;;;;;;6254958;22;20003;-88
2023/05/03 16:28:44;;;;;;;4.65;2.30;;;20.60;61.00;;;;;;6233402;22;20030;-89
2023/05/03 16:31:36;;;;;;;3.13;1.70;;;20.60;61.90;;;;;;6255634;22;20011;-89
2023/05/03 16:34:14;;;;;;;;;;;;;;;;;;;;;
2023/05/03 16:36:51;;;;;;;3.00;1.83;;;20.70;60.80;;;;;;6280865;22;20075;-89
2023/05/03 16:40:01;;;;;;;;;;;;;;;;;;;;;
2023/05/03 16:43:18;;;;;;;;;;;;;;;;;;;;;
2023/05/03 16:46:15;;;;;;;3.70;2.40;;;20.80;60.20;;;;;;6274927;22;20401;-89
2023/05/03 16:48:49;;;;;;;7.38;2.50;;;20.80;59.90;;;;;;6257680;22;20003;-87
2023/05/03 16:51:40;;;;;;;4.95;2.30;;;20.90;59.60;;;;;;6256524;22;20023;-90
2023/05/03 16:54:10;;;;;;;5.13;2.05;;;20.90;59.70;;;;;;6230865;23;20094;-91
2023/05/03 16:57:05;;;;;;;8.45;3.03;;;20.90;59.70;;;;;;6226365;23;20001;-91
2023/05/03 17:02:47;;;;;;;5.25;2.30;;;20.90;59.50;;;;;;6235228;23;20012;-91
2023/05/03 17:06:03;;;;;;;3.35;2.10;;;21.00;59.60;;;;;;6248556;23;20000;-90
2023/05/03 17:12:36;;;;;;;;;;;;;;;;;;;;;
2023/05/03 17:15:35;;;;;;;;;;;;;;;;;;;;;
2023/05/03 17:21:49;;;;;;;6.30;2.00;;;20.80;59.70;;;;;;6232628;22;20000;-90
2023/05/03 17:24:30;;;;;;;;;;;;;;;;;;;;;
2023/05/03 17:27:53;;;;;;;6.35;2.35;;;20.60;60.50;;;;;;6249803;23;20034;-89
2023/05/03 17:34:00;;;;;;;;;;;;;;;;;;;;;
2023/05/03 17:37:23;;;;;;;;;;;;;;;;;;;;;
2023/05/03 17:43:11;;;;;;;;;;;;;;;;;;;;;
2023/05/03 17:45:50;;;;;;;6.40;2.97;;;19.50;59.50;;;;;;6248189;23;20490;-90
2023/05/03 17:48:57;;;;;;;;;;;;;;;;;;;;;
2023/05/03 17:54:53;;;;;;;;;;;;;;;;;;;;;
2023/05/03 17:58:12;;;;;;;;;;;;;;;;;;;;;
2023/05/03 18:01:14;;;;;;;;;;;;;;;;;;;;;
2023/05/03 18:07:17;;;;;;;4.35;1.88;;;18.60;62.80;;;;;;6244661;22;20042;-90
2023/05/03 18:09:55;;;;;;;;;;;;;;;;;;;;;
2023/05/03 18:12:32;;;;;;;4.93;2.40;;;18.50;62.70;;;;;;6279070;22;20082;-89
2023/05/03 18:19:20;;;;;;;;;;;;;;;;;;;;;
2023/05/03 18:22:12;;;;;;;5.35;2.20;;;18.20;62.90;;;;;;6279418;22;20087;-89
2023/05/03 18:24:49;;;;;;;7.25;2.38;;;18.20;63.30;;;;;;6231283;22;20010;-90
2023/05/03 18:30:49;;;;;;;;;;;;;;;;;;;;;
2023/05/03 18:33:45;;;;;;;;;;;;;;;;;;;;;
2023/05/03 18:36:26;;;;;;;7.07;3.45;;;17.90;63.90;;;;;;6277219;22;20303;-90
2023/05/03 18:39:06;;;;;;;;;;;;;;;;;;;;;
2023/05/03 18:41:45;;;;;;;7.00;3.35;;;17.80;65.10;;;;;;6279119;22;20132;-90
2023/05/03 18:44:30;;;;;;;7.55;3.17;;;17.80;65.60;;;;;;6252039;22;20448;-90
2023/05/03 18:47:14;;;;;;;;;;;;;;;;;;;;;
2023/05/03 18:50:08;;;;;;;7.82;3.03;;;17.70;66.90;;;;;;6233735;22;20086;-89
2023/05/03 18:52:53;;;;;;;6.60;2.78;;;17.70;67.50;;;;;;6234918;22;19999;-89
2023/05/03 18:55:51;;;;;;;;;;;;;;;;;;;;;
2023/05/03 18:59:07;;;;;;;;;;;;;;;;;;;;;
2023/05/03 19:02:29;;;;;;;;;;;;;;;;;;;;;
2023/05/03 19:05:25;;;;;;;;;;;;;;;;;;;;;
2023/05/03 19:08:03;;;;;;;9.48;3.70;;;17.40;68.50;;;;;;6247724;23;20079;-89
2023/05/03 19:10:44;;;;;;;6.40;3.45;;;17.40;69.10;;;;;;6222661;23;20074;-88
2023/05/03 19:13:28;;;;;;;9.25;3.78;;;17.30;69.40;;;;;;6247292;23;20004;-89
2023/05/03 19:16:31;;;;;;;;;;;;;;;;;;;;;
2023/05/03 19:19:15;;;;;;;13.07;4.65;;;17.20;69.40;;;;;;6246800;23;20079;-89
2023/05/03 19:21:42;;;;;;;8.40;3.97;;;17.20;70.20;;;;;;6247247;23;19996;-89
2023/05/03 19:24:13;;;;;;;14.93;5.25;;;17.10;69.90;;;;;;6247191;23;19997;-90
2023/05/03 19:26:57;;;;;;;12.98;6.32;;;17.10;69.80;;;;;;6245825;23;20452;-89
2023/05/03 19:29:28;;;;;;;12.23;6.13;;;17.00;70.00;;;;;;6248873;23;20410;-89
2023/05/03 19:32:04;;;;;;;12.40;6.32;;;17.00;70.30;;;;;;6248990;23;20001;-90
2023/05/03 19:37:32;;;;;;;9.48;5.55;;;16.90;71.20;;;;;;6249348;23;20015;-90
2023/05/03 19:40:23;;;;;;;13.02;6.15;;;16.80;71.40;;;;;;6223682;23;20445;-90
2023/05/03 19:46:30;;;;;;;;;;;;;;;;;;;;;
2023/05/03 19:49:07;;;;;;;12.00;5.82;;;16.70;71.90;;;;;;6249158;23;20061;-89
2023/05/03 19:51:47;;;;;;;;;;;;;;;;;;;;;
2023/05/03 19:54:23;;;;;;;10.00;5.63;;;16.60;72.50;;;;;;6256456;22;20094;-89
2023/05/03 19:57:16;;;;;;;11.45;6.00;;;16.60;72.20;;;;;;6256220;22;19996;-90
2023/05/03 19:59:52;;;;;;;;;;;;;;;;;;;;;
2023/05/03 20:02:36;;;;;;;;;;;;;;;;;;;;;
2023/05/03 20:05:09;;;;;;;12.23;5.38;;;16.50;72.30;;;;;;6257700;22;20362;-89
2023/05/03 20:07:46;;;;;;;8.30;5.03;;;16.40;73.70;;;;;;6257421;22;20016;-89
2023/05/03 20:10:37;;;;;;;13.07;5.30;;;16.30;73.30;;;;;;6233533;22;20429;-90
2023/05/03 20:13:25;;;;;;;10.95;5.32;;;16.30;73.30;;;;;;6250718;22;20004;-89
2023/05/03 20:16:14;;;;;;;;;;;;;;;;;;;;;
2023/05/03 20:18:53;;;;;;;;;;;;;;;;;;;;;
2023/05/03 20:21:48;;;;;;;9.32;4.93;;;16.20;73.10;;;;;;6280183;22;20420;-90
2023/05/03 20:24:52;;;;;;;;;;;;;;;;;;;;;
2023/05/03 20:27:24;;;;;;;8.30;4.90;;;16.10;73.40;;;;;;6280506;22;20529;-89
2023/05/03 20:30:07;;;;;;;10.13;5.07;;;16.10;73.30;;;;;;6227880;22;20368;-90
2023/05/03 20:32:40;;;;;;;9.27;4.53;;;16.00;73.30;;;;;;6229818;22;19999;-89
2023/05/03 20:41:17;;;;;;;;;;;;;;;;;;;;;
2023/05/03 20:43:43;;;;;;;9.82;5.32;;;15.80;74.00;;;;;;6265716;22;20038;-89
2023/05/03 20:46:09;;;;;;;7.75;4.97;;;15.80;74.30;;;;;;6252273;22;19995;-88
2023/05/03 20:48:34;;;;;;;10.65;4.90;;;15.80;74.40;;;;;;6201934;22;20008;-89